N5385J KROC-KITH
Flight info
| Callsign | N5385J |
|---|---|
| Flight time | N/A |
| Altitude | 5000 |
| Route | GEE |
| Aircraft | C172/L-SFG/C |
Departure
| Time | 2026-04-29 17:21 |
|---|---|
| Airport | Frederick Douglass Greater Rochester International Airport (KROC) |
Arrival
| Time | N/A |
|---|---|
| Airport | Ithaca Tompkins Regional Airport (KITH) |
| Time | Latitude | Longitude | Altitude | Speed | Heading |
|---|---|---|---|---|---|
| 2026-04-29 17:11 | 43.11606 | -77.66567 | 543 ft | 0 kts | 267° |
| 2026-04-29 17:16 | 43.11617 | -77.66585 | 543 ft | 8 kts | 347° |
| 2026-04-29 17:16 | 43.11686 | -77.66584 | 543 ft | 8 kts | 349° |
| 2026-04-29 17:17 | 43.11736 | -77.66615 | 544 ft | 8 kts | 353° |
| 2026-04-29 17:17 | 43.11779 | -77.66567 | 544 ft | 9 kts | 69° |
| 2026-04-29 17:17 | 43.11806 | -77.66477 | 543 ft | 11 kts | 57° |
| 2026-04-29 17:17 | 43.11847 | -77.66368 | 542 ft | 13 kts | 60° |
| 2026-04-29 17:18 | 43.11888 | -77.66242 | 541 ft | 15 kts | 66° |
| 2026-04-29 17:18 | 43.11940 | -77.66107 | 540 ft | 16 kts | 66° |
| 2026-04-29 17:18 | 43.11990 | -77.65964 | 539 ft | 15 kts | 70° |
| 2026-04-29 17:18 | 43.12043 | -77.65891 | 538 ft | 2 kts | 341° |
| 2026-04-29 17:20 | 43.12055 | -77.65896 | 538 ft | 6 kts | 343° |
| 2026-04-29 17:20 | 43.12080 | -77.65977 | 539 ft | 16 kts | 240° |
| 2026-04-29 17:20 | 43.11964 | -77.66299 | 542 ft | 62 kts | 244° |
| 2026-04-29 17:20 | 43.11744 | -77.66911 | 648 ft | 75 kts | 246° |
| 2026-04-29 17:21 | 43.11523 | -77.67553 | 819 ft | 77 kts | 246° |
| 2026-04-29 17:21 | 43.11288 | -77.68227 | 983 ft | 80 kts | 239° |
| 2026-04-29 17:21 | 43.11005 | -77.68889 | 1108 ft | 85 kts | 235° |
| 2026-04-29 17:21 | 43.10699 | -77.69593 | 1233 ft | 90 kts | 240° |
| 2026-04-29 17:22 | 43.10395 | -77.70359 | 1390 ft | 90 kts | 238° |
| 2026-04-29 17:22 | 43.10083 | -77.71112 | 1541 ft | 92 kts | 236° |
| 2026-04-29 17:22 | 43.09767 | -77.71868 | 1684 ft | 92 kts | 246° |
| 2026-04-29 17:22 | 43.09536 | -77.72678 | 1835 ft | 92 kts | 244° |
| 2026-04-29 17:23 | 43.09215 | -77.73450 | 1962 ft | 96 kts | 237° |
| 2026-04-29 17:23 | 43.08868 | -77.74255 | 2111 ft | 97 kts | 238° |
| 2026-04-29 17:23 | 43.08538 | -77.75039 | 2279 ft | 95 kts | 238° |
| 2026-04-29 17:23 | 43.08242 | -77.75834 | 2433 ft | 94 kts | 243° |
| 2026-04-29 17:24 | 43.07953 | -77.76630 | 2581 ft | 93 kts | 238° |
| 2026-04-29 17:24 | 43.07674 | -77.77468 | 2701 ft | 96 kts | 244° |
| 2026-04-29 17:24 | 43.07348 | -77.78259 | 2827 ft | 98 kts | 222° |
| 2026-04-29 17:24 | 43.06791 | -77.78642 | 3013 ft | 90 kts | 178° |
| 2026-04-29 17:25 | 43.06185 | -77.78492 | 3123 ft | 89 kts | 151° |
| 2026-04-29 17:25 | 43.05606 | -77.78213 | 3269 ft | 88 kts | 151° |
| 2026-04-29 17:25 | 43.05010 | -77.77940 | 3379 ft | 90 kts | 157° |
| 2026-04-29 17:25 | 43.04403 | -77.77741 | 3512 ft | 90 kts | 158° |
| 2026-04-29 17:26 | 43.03825 | -77.77552 | 3718 ft | 81 kts | 159° |
| 2026-04-29 17:26 | 43.03220 | -77.77380 | 3778 ft | 91 kts | 167° |
| 2026-04-29 17:26 | 43.02602 | -77.77348 | 3956 ft | 87 kts | 173° |
| 2026-04-29 17:26 | 43.01931 | -77.77299 | 3975 ft | 99 kts | 173° |
| 2026-04-29 17:27 | 43.01228 | -77.77258 | 4086 ft | 100 kts | 168° |
| 2026-04-29 17:27 | 43.00632 | -77.76914 | 4289 ft | 90 kts | 143° |
| 2026-04-29 17:27 | 43.00086 | -77.76505 | 4424 ft | 86 kts | 143° |
| 2026-04-29 17:27 | 42.99539 | -77.76112 | 4485 ft | 93 kts | 154° |
| 2026-04-29 17:28 | 42.98950 | -77.75790 | 4612 ft | 91 kts | 156° |
| 2026-04-29 17:28 | 42.98397 | -77.75458 | 4819 ft | 79 kts | 150° |
| 2026-04-29 17:28 | 42.97931 | -77.75115 | 4914 ft | 81 kts | 154° |
| 2026-04-29 17:28 | 42.97377 | -77.74814 | 4881 ft | 91 kts | 162° |
| 2026-04-29 17:29 | 42.96733 | -77.74609 | 4874 ft | 95 kts | 167° |
| 2026-04-29 17:29 | 42.96066 | -77.74456 | 4877 ft | 97 kts | 169° |
| 2026-04-29 17:29 | 42.95396 | -77.74317 | 4880 ft | 98 kts | 170° |
| 2026-04-29 17:29 | 42.94714 | -77.74172 | 4873 ft | 99 kts | 169° |
| 2026-04-29 17:30 | 42.94031 | -77.74032 | 4873 ft | 99 kts | 169° |
| 2026-04-29 17:30 | 42.93356 | -77.73894 | 4860 ft | 97 kts | 169° |
| 2026-04-29 17:30 | 42.92693 | -77.73762 | 4853 ft | 95 kts | 169° |
| 2026-04-29 17:30 | 42.92031 | -77.73630 | 4854 ft | 97 kts | 169° |
| 2026-04-29 17:31 | 42.91363 | -77.73500 | 4854 ft | 98 kts | 169° |
| 2026-04-29 17:31 | 42.90670 | -77.73388 | 4849 ft | 100 kts | 178° |
| 2026-04-29 17:31 | 42.89977 | -77.73449 | 4854 ft | 101 kts | 182° |
| 2026-04-29 17:31 | 42.89349 | -77.73528 | 4862 ft | 102 kts | 183° |
| 2026-04-29 17:32 | 42.88608 | -77.73628 | 4857 ft | 103 kts | 183° |
| 2026-04-29 17:32 | 42.87889 | -77.73726 | 4843 ft | 104 kts | 183° |
| 2026-04-29 17:32 | 42.87176 | -77.73808 | 4845 ft | 103 kts | 179° |
| 2026-04-29 17:32 | 42.86460 | -77.73826 | 4848 ft | 102 kts | 176° |
| 2026-04-29 17:33 | 42.85740 | -77.73782 | 4848 ft | 102 kts | 173° |
| 2026-04-29 17:33 | 42.85036 | -77.73710 | 4849 ft | 102 kts | 172° |
| 2026-04-29 17:33 | 42.84330 | -77.73624 | 4847 ft | 102 kts | 173° |
| 2026-04-29 17:33 | 42.83628 | -77.73536 | 4850 ft | 102 kts | 174° |
| 2026-04-29 17:34 | 42.82915 | -77.73442 | 4847 ft | 101 kts | 173° |
| 2026-04-29 17:34 | 42.82212 | -77.73349 | 4847 ft | 101 kts | 169° |
| 2026-04-29 17:34 | 42.81628 | -77.72842 | 4850 ft | 103 kts | 125° |
| 2026-04-29 17:34 | 42.81379 | -77.71931 | 4850 ft | 105 kts | 108° |
| 2026-04-29 17:35 | 42.81104 | -77.70317 | 4839 ft | 105 kts | 105° |
| 2026-04-29 17:35 | 42.80890 | -77.69012 | 4838 ft | 104 kts | 107° |
| 2026-04-29 17:35 | 42.80740 | -77.68050 | 4836 ft | 104 kts | 106° |
| 2026-04-29 17:36 | 42.80593 | -77.67085 | 4837 ft | 104 kts | 105° |
| 2026-04-29 17:36 | 42.80446 | -77.66116 | 4831 ft | 104 kts | 103° |
| 2026-04-29 17:36 | 42.80290 | -77.65168 | 4833 ft | 103 kts | 104° |
| 2026-04-29 17:36 | 42.80141 | -77.64220 | 4835 ft | 102 kts | 106° |
| 2026-04-29 17:37 | 42.79989 | -77.63275 | 4825 ft | 102 kts | 106° |
| 2026-04-29 17:37 | 42.79847 | -77.62318 | 4838 ft | 102 kts | 105° |
| 2026-04-29 17:37 | 42.79713 | -77.61382 | 4838 ft | 102 kts | 105° |
| 2026-04-29 17:37 | 42.79584 | -77.60457 | 4839 ft | 102 kts | 106° |
| 2026-04-29 17:38 | 42.79447 | -77.59505 | 4847 ft | 102 kts | 105° |
| 2026-04-29 17:38 | 42.79308 | -77.58561 | 4848 ft | 102 kts | 104° |